createdAt,value
2023-01-27T00:01:15.657Z,1.14
2023-01-27T00:06:17.061Z,1.12
2023-01-27T00:11:37.310Z,1.09
2023-01-27T00:16:38.703Z,1.07
2023-01-27T00:21:58.890Z,1.13
2023-01-27T00:27:00.330Z,0.96
2023-01-27T00:32:20.682Z,0.94
2023-01-27T00:37:22.048Z,0.93
2023-01-27T00:42:23.510Z,0.93
2023-01-27T00:47:24.916Z,0.95
2023-01-27T00:52:26.482Z,0.97
2023-01-27T00:57:27.952Z,0.93
2023-01-27T01:02:29.415Z,0.90
2023-01-27T01:07:30.870Z,0.91
2023-01-27T01:12:32.317Z,0.91
2023-01-27T01:17:33.745Z,0.93
2023-01-27T01:22:35.165Z,0.85
2023-01-27T01:27:36.608Z,0.78
2023-01-27T01:32:38.033Z,0.77
2023-01-27T01:37:39.470Z,0.86
2023-01-27T01:42:52.520Z,0.89
2023-01-27T01:47:53.924Z,0.92
2023-01-27T01:52:56.001Z,0.93
2023-01-27T01:57:57.490Z,0.89
2023-01-27T02:02:59.022Z,0.91
2023-01-27T02:08:16.612Z,0.92
2023-01-27T02:13:18.005Z,0.93
2023-01-27T02:18:19.882Z,0.95
2023-01-27T02:23:52.243Z,0.92
2023-01-27T02:29:06.648Z,0.96
2023-01-27T02:34:12.371Z,0.89
2023-01-27T02:39:16.770Z,0.88
2023-01-27T02:44:18.304Z,0.89
2023-01-27T02:49:19.723Z,0.88
2023-01-27T02:54:21.114Z,0.87
2023-01-27T02:59:22.558Z,0.82
2023-01-27T03:04:24.113Z,0.86
2023-01-27T03:09:25.617Z,0.87
2023-01-27T03:14:45.809Z,0.80
2023-01-27T03:19:53.269Z,0.78
2023-01-27T03:24:54.705Z,0.80
2023-01-27T03:29:56.203Z,0.89
2023-01-27T03:34:57.846Z,0.96
2023-01-27T03:40:18.106Z,1.01
2023-01-27T03:45:37.995Z,1.02
2023-01-27T03:50:43.100Z,1.00
2023-01-27T03:55:44.546Z,0.98
2023-01-27T04:00:47.867Z,1.00
2023-01-27T04:06:07.894Z,1.04
2023-01-27T04:11:28.634Z,1.04
2023-01-27T04:16:31.700Z,1.01
2023-01-27T04:21:33.922Z,0.97
2023-01-27T04:26:35.539Z,0.94
2023-01-27T04:31:36.980Z,0.89
2023-01-27T04:36:40.119Z,0.87
2023-01-27T04:41:41.619Z,0.82
2023-01-27T04:46:43.061Z,0.85
2023-01-27T04:51:46.233Z,0.77
2023-01-27T04:57:01.159Z,0.78
2023-01-27T05:02:04.676Z,0.82
2023-01-27T05:07:06.284Z,0.86
2023-01-27T05:12:08.014Z,0.84
2023-01-27T05:17:09.474Z,0.85
2023-01-27T05:22:11.408Z,0.85
2023-01-27T05:27:12.836Z,0.82
2023-01-27T05:32:14.249Z,0.85
2023-01-27T05:37:15.980Z,0.86
2023-01-27T05:42:18.527Z,0.80
2023-01-27T05:47:19.964Z,0.79
2023-01-27T05:52:21.414Z,0.78
2023-01-27T05:57:22.887Z,0.79
2023-01-27T06:02:24.545Z,0.75
2023-01-27T06:07:25.983Z,0.82
2023-01-27T06:12:27.460Z,0.83
2023-01-27T06:17:30.336Z,0.89
2023-01-27T06:22:31.805Z,0.87
2023-01-27T06:27:33.271Z,0.89
2023-01-27T06:32:37.888Z,0.91
2023-01-27T06:37:39.492Z,0.98
2023-01-27T06:42:43.490Z,1.09
2023-01-27T06:47:45.017Z,1.12
2023-01-27T06:52:46.574Z,1.10
2023-01-27T06:57:48.434Z,1.07
2023-01-27T07:02:50.726Z,1.06
2023-01-27T07:07:52.326Z,1.09
2023-01-27T07:12:53.805Z,1.03
2023-01-27T07:17:58.701Z,1.00
2023-01-27T07:23:02.152Z,1.06
2023-01-27T07:28:03.866Z,1.10
2023-01-27T07:33:06.298Z,1.12
2023-01-27T07:38:08.049Z,1.28
2023-01-27T07:43:10.382Z,1.40
2023-01-27T07:48:12.884Z,1.41
2023-01-27T07:53:14.787Z,1.35
2023-01-27T07:58:16.734Z,1.39
2023-01-27T08:03:23.988Z,1.34
2023-01-27T08:08:25.492Z,1.33
2023-01-27T08:13:27.180Z,1.34
2023-01-27T08:18:29.773Z,1.34
2023-01-27T08:23:32.649Z,1.28
2023-01-27T08:28:36.860Z,1.30
2023-01-27T08:33:38.865Z,1.27
2023-01-27T08:38:41.460Z,1.27
2023-01-27T08:43:43.401Z,1.30
2023-01-27T08:48:44.968Z,1.41
2023-01-27T08:53:46.411Z,1.48
2023-01-27T08:58:48.552Z,1.55
2023-01-27T09:03:50.126Z,1.67
2023-01-27T09:09:11.754Z,1.72
2023-01-27T09:14:13.933Z,1.86
2023-01-27T09:19:15.890Z,1.98
2023-01-27T09:24:18.121Z,2.19
2023-01-27T09:29:19.767Z,2.40
2023-01-27T09:34:21.310Z,2.38
2023-01-27T09:39:23.600Z,2.34
2023-01-27T09:44:45.963Z,2.28
2023-01-27T09:49:50.358Z,2.37
2023-01-27T09:55:12.295Z,2.54
2023-01-27T10:00:33.282Z,2.70
2023-01-27T10:05:37.928Z,2.75
2023-01-27T10:10:56.135Z,2.73
2023-01-27T10:16:13.640Z,2.55
2023-01-27T10:21:33.888Z,2.45
2023-01-27T10:26:42.687Z,2.43
2023-01-27T10:31:54.384Z,2.43
2023-01-27T10:37:12.913Z,2.33
2023-01-27T10:42:31.378Z,2.20
2023-01-27T10:47:42.889Z,2.45
2023-01-27T10:52:52.684Z,2.51
2023-01-27T10:58:02.156Z,2.63
2023-01-27T11:03:21.562Z,2.56
2023-01-27T11:08:27.365Z,2.58
2023-01-27T11:13:31.107Z,2.68
2023-01-27T11:18:36.190Z,2.77
2023-01-27T11:23:43.379Z,2.80
2023-01-27T11:29:00.188Z,2.92
2023-01-27T11:34:19.219Z,2.98
2023-01-27T11:39:20.845Z,2.92
2023-01-27T11:44:29.571Z,2.83
2023-01-27T11:49:35.566Z,2.77
2023-01-27T11:54:43.031Z,2.67
2023-01-27T11:59:45.693Z,2.61
2023-01-27T12:05:00.120Z,2.72
2023-01-27T12:10:01.867Z,2.78
2023-01-27T12:15:05.122Z,2.85
2023-01-27T12:20:15.138Z,2.76
2023-01-27T12:25:28.057Z,2.76
2023-01-27T12:30:34.844Z,2.74
2023-01-27T12:35:37.339Z,2.67
2023-01-27T12:40:43.083Z,2.60
2023-01-27T12:45:44.888Z,2.60
2023-01-27T12:50:52.648Z,2.72
2023-01-27T12:56:13.804Z,2.77
2023-01-27T13:01:23.729Z,2.69
2023-01-27T13:06:59.338Z,2.70
2023-01-27T13:12:04.801Z,2.75
2023-01-27T13:17:27.913Z,2.83
2023-01-27T13:22:37.823Z,2.86
2023-01-27T13:27:40.825Z,2.85
2023-01-27T13:32:47.568Z,2.79
2023-01-27T13:37:57.298Z,2.81
2023-01-27T13:43:34.302Z,2.79
2023-01-27T13:48:43.210Z,2.87
2023-01-27T13:53:47.576Z,2.83
2023-01-27T13:59:17.240Z,2.79
2023-01-27T14:04:21.978Z,2.83
2023-01-27T14:09:49.613Z,2.92
2023-01-27T14:15:03.918Z,3.14
2023-01-27T14:20:17.995Z,3.31
2023-01-27T14:25:31.075Z,3.28
2023-01-27T14:30:41.426Z,3.14
2023-01-27T14:35:50.560Z,3.11
2023-01-27T14:41:05.227Z,3.02
2023-01-27T14:46:41.333Z,2.86
2023-01-27T14:51:49.731Z,2.76
2023-01-27T14:57:08.250Z,2.76
2023-01-27T15:02:15.963Z,2.80
2023-01-27T15:07:34.113Z,2.73
2023-01-27T15:12:48.340Z,2.77
2023-01-27T15:18:01.888Z,2.84
2023-01-27T15:23:06.929Z,2.82
2023-01-27T15:28:17.774Z,2.82
2023-01-27T15:33:52.037Z,2.78
2023-01-27T15:39:09.244Z,2.75
2023-01-27T15:44:18.221Z,2.71
2023-01-27T15:49:27.181Z,2.79
2023-01-27T15:54:33.529Z,2.69
2023-01-27T15:59:59.515Z,2.51
2023-01-27T16:05:26.222Z,2.42
2023-01-27T16:10:33.579Z,2.37
2023-01-27T16:15:35.701Z,2.35
2023-01-27T16:20:44.063Z,2.36
2023-01-27T16:25:50.763Z,2.34
2023-01-27T16:31:05.754Z,2.42
2023-01-27T16:36:29.166Z,2.47
2023-01-27T16:41:39.063Z,2.51
2023-01-27T16:46:45.496Z,2.54
2023-01-27T16:51:58.155Z,2.58
2023-01-27T16:57:01.706Z,2.54
2023-01-27T17:02:16.062Z,2.50
2023-01-27T17:07:17.703Z,2.51
2023-01-27T17:12:50.351Z,2.52
2023-01-27T17:17:52.212Z,2.56
2023-01-27T17:22:55.383Z,2.53
2023-01-27T17:28:00.269Z,2.47
2023-01-27T17:33:04.847Z,2.43
2023-01-27T17:38:16.460Z,2.42
2023-01-27T17:43:37.665Z,2.41
2023-01-27T17:48:51.414Z,2.40
2023-01-27T17:53:54.226Z,2.41
2023-01-27T17:59:07.079Z,2.49
2023-01-27T18:04:11.850Z,2.51
2023-01-27T18:09:18.243Z,2.49
2023-01-27T18:14:20.887Z,2.51
2023-01-27T18:19:24.891Z,2.49
2023-01-27T18:24:28.271Z,2.49
2023-01-27T18:29:36.284Z,2.54
2023-01-27T18:34:51.600Z,2.53
2023-01-27T18:39:53.760Z,2.57
2023-01-27T18:44:56.080Z,2.60
2023-01-27T18:50:00.620Z,2.54
2023-01-27T18:55:13.517Z,2.52
2023-01-27T19:00:18.021Z,2.60
2023-01-27T19:05:25.667Z,2.62
2023-01-27T19:10:30.637Z,2.67
2023-01-27T19:15:44.266Z,2.73
2023-01-27T19:20:46.081Z,2.72
2023-01-27T19:25:50.971Z,2.75
2023-01-27T19:30:52.517Z,2.68
2023-01-27T19:36:00.650Z,2.62
2023-01-27T19:41:03.243Z,2.58
2023-01-27T19:46:14.734Z,2.58
2023-01-27T19:51:17.456Z,2.58
2023-01-27T19:56:21.484Z,2.58
2023-01-27T20:01:24.951Z,2.58
2023-01-27T20:06:28.570Z,2.60
2023-01-27T20:11:31.992Z,2.56
2023-01-27T20:16:34.031Z,2.58
2023-01-27T20:21:35.587Z,2.54
2023-01-27T20:26:37.510Z,2.53
2023-01-27T20:31:39.598Z,2.55
2023-01-27T20:36:41.326Z,2.59
2023-01-27T20:41:42.813Z,2.60
2023-01-27T20:46:44.275Z,2.56
2023-01-27T20:51:45.745Z,2.59
2023-01-27T20:56:47.226Z,2.58
2023-01-27T21:01:48.756Z,2.58
2023-01-27T21:06:50.204Z,2.61
2023-01-27T21:11:51.719Z,2.62
2023-01-27T21:16:53.262Z,2.67
2023-01-27T21:21:54.905Z,2.72
2023-01-27T21:26:57.197Z,2.77
2023-01-27T21:31:58.921Z,2.80
2023-01-27T21:37:00.436Z,2.85
2023-01-27T21:42:01.842Z,2.90
2023-01-27T21:47:04.708Z,2.94
2023-01-27T21:52:06.138Z,2.92
2023-01-27T21:57:07.595Z,2.92
2023-01-27T22:02:13.616Z,2.92
2023-01-27T22:07:16.900Z,2.98
2023-01-27T22:12:18.515Z,2.98
2023-01-27T22:17:20.197Z,3.02
2023-01-27T22:22:21.652Z,2.98
2023-01-27T22:27:24.139Z,2.99
2023-01-27T22:32:25.591Z,2.95
2023-01-27T22:37:27.040Z,2.94
2023-01-27T22:42:28.491Z,2.95
2023-01-27T22:47:29.944Z,2.92
2023-01-27T22:52:31.417Z,2.90
2023-01-27T22:57:33.417Z,2.88
2023-01-27T23:02:36.962Z,2.88
2023-01-27T23:07:38.462Z,2.83
2023-01-27T23:12:40.073Z,2.82
2023-01-27T23:17:41.529Z,2.81
2023-01-27T23:22:43.009Z,2.76
2023-01-27T23:27:44.483Z,2.79
2023-01-27T23:32:45.967Z,2.79
2023-01-27T23:37:47.365Z,2.84
2023-01-27T23:42:48.797Z,2.91
2023-01-27T23:47:50.250Z,2.89
2023-01-27T23:52:51.745Z,2.84
2023-01-27T23:57:53.158Z,2.81
